createdAt,value
2022-11-02T00:01:14.448Z,27.77
2022-11-02T00:03:41.261Z,26.83
2022-11-02T00:06:07.893Z,24.83
2022-11-02T00:08:34.795Z,24.80
2022-11-02T00:11:01.449Z,25.33
2022-11-02T00:13:28.162Z,24.88
2022-11-02T00:15:55.475Z,24.63
2022-11-02T00:18:22.552Z,25.85
2022-11-02T00:20:49.497Z,29.67
2022-11-02T00:23:16.343Z,29.83
2022-11-02T00:25:47.840Z,30.40
2022-11-02T00:28:15.592Z,29.38
2022-11-02T00:30:43.231Z,31.25
2022-11-02T00:33:09.976Z,30.48
2022-11-02T00:35:37.052Z,30.63
2022-11-02T00:38:04.296Z,31.65
2022-11-02T00:40:31.359Z,31.60
2022-11-02T00:42:58.207Z,30.02
2022-11-02T00:45:25.182Z,30.00
2022-11-02T00:47:51.927Z,31.65
2022-11-02T00:50:18.597Z,31.75
2022-11-02T00:52:45.364Z,32.03
2022-11-02T00:55:12.563Z,30.23
2022-11-02T00:57:40.359Z,31.15
2022-11-02T01:00:10.085Z,32.28
2022-11-02T01:02:37.495Z,32.60
2022-11-02T01:05:05.437Z,34.47
2022-11-02T01:07:32.280Z,35.03
2022-11-02T01:09:59.051Z,37.85
2022-11-02T01:12:26.089Z,39.35
2022-11-02T01:14:52.808Z,38.38
2022-11-02T01:17:19.652Z,38.38
2022-11-02T01:19:46.371Z,37.60
2022-11-02T01:22:13.338Z,38.90
2022-11-02T01:24:40.117Z,36.08
2022-11-02T01:27:06.815Z,38.67
2022-11-02T01:29:33.498Z,37.55
2022-11-02T01:32:00.167Z,36.38
2022-11-02T01:34:26.839Z,37.72
2022-11-02T01:36:53.628Z,35.65
2022-11-02T01:39:20.459Z,36.17
2022-11-02T01:41:51.440Z,35.53
2022-11-02T01:44:36.343Z,34.30
2022-11-02T01:47:11.550Z,34.00
2022-11-02T01:49:42.483Z,33.97
2022-11-02T01:52:16.262Z,33.70
2022-11-02T01:54:53.662Z,32.67
2022-11-02T01:57:22.278Z,33.08
2022-11-02T01:59:57.276Z,30.63
2022-11-02T02:02:25.875Z,28.80
2022-11-02T02:04:58.273Z,29.75
2022-11-02T02:07:26.279Z,29.05
2022-11-02T02:09:53.482Z,28.85
2022-11-02T02:12:21.267Z,28.75
2022-11-02T02:14:48.012Z,27.38
2022-11-02T02:17:20.809Z,26.90
2022-11-02T02:20:06.234Z,28.00
2022-11-02T02:23:06.024Z,26.95
2022-11-02T02:25:38.320Z,25.70
2022-11-02T02:28:41.354Z,24.90
2022-11-02T02:31:31.933Z,24.92
2022-11-02T02:34:15.552Z,24.45
2022-11-02T02:37:10.189Z,23.00
2022-11-02T02:39:57.611Z,23.02
2022-11-02T02:42:36.838Z,22.65
2022-11-02T02:45:26.800Z,24.23
2022-11-02T02:48:04.806Z,22.05
2022-11-02T02:50:45.146Z,21.15
2022-11-02T02:53:14.408Z,22.90
2022-11-02T02:55:45.535Z,22.80
2022-11-02T02:58:20.937Z,22.35
2022-11-02T03:00:47.749Z,20.95
2022-11-02T03:03:20.128Z,20.55
2022-11-02T03:06:15.268Z,21.33
2022-11-02T03:08:47.970Z,20.55
2022-11-02T03:11:17.193Z,22.95
2022-11-02T03:14:18.737Z,21.80
2022-11-02T03:17:14.129Z,20.90
2022-11-02T03:19:57.914Z,18.67
2022-11-02T03:22:51.933Z,20.23
2022-11-02T03:25:24.635Z,18.02
2022-11-02T03:27:55.704Z,17.75
2022-11-02T03:30:24.451Z,17.08
2022-11-02T03:33:07.752Z,17.90
2022-11-02T03:35:42.882Z,16.48
2022-11-02T03:38:37.947Z,17.80
2022-11-02T03:41:06.473Z,17.23
2022-11-02T03:43:36.219Z,18.23
2022-11-02T03:46:06.097Z,17.70
2022-11-02T03:48:38.514Z,18.10
2022-11-02T03:51:10.358Z,17.00
2022-11-02T03:54:06.417Z,17.67
2022-11-02T03:56:38.405Z,18.23
2022-11-02T03:59:05.168Z,18.15
2022-11-02T04:01:38.031Z,19.45
2022-11-02T04:04:05.119Z,19.50
2022-11-02T04:06:32.262Z,18.90
2022-11-02T04:08:59.971Z,19.20
2022-11-02T04:11:46.208Z,19.42
2022-11-02T04:14:31.570Z,17.80
2022-11-02T04:17:17.126Z,21.35
2022-11-02T04:19:47.030Z,19.55
2022-11-02T04:22:35.171Z,20.48
2022-11-02T04:25:20.204Z,18.48
2022-11-02T04:27:52.607Z,19.25
2022-11-02T04:30:23.085Z,19.55
2022-11-02T04:33:10.253Z,20.67
2022-11-02T04:35:37.734Z,20.17
2022-11-02T04:38:23.164Z,22.13
2022-11-02T04:41:09.779Z,21.00
2022-11-02T04:43:36.444Z,22.60
2022-11-02T04:46:03.114Z,23.33
2022-11-02T04:48:29.806Z,21.30
2022-11-02T04:50:58.469Z,20.73
2022-11-02T04:53:25.149Z,20.17
2022-11-02T04:55:51.793Z,19.90
2022-11-02T04:58:18.472Z,21.75
2022-11-02T05:00:45.130Z,20.75
2022-11-02T05:03:12.633Z,21.08
2022-11-02T05:05:39.768Z,20.83
2022-11-02T05:08:06.928Z,22.30
2022-11-02T05:10:34.024Z,21.33
2022-11-02T05:13:01.118Z,21.08
2022-11-02T05:15:28.245Z,21.75
2022-11-02T05:17:55.169Z,22.58
2022-11-02T05:20:22.612Z,21.83
2022-11-02T05:22:49.293Z,21.48
2022-11-02T05:25:16.094Z,20.48
2022-11-02T05:27:42.818Z,21.15
2022-11-02T05:30:10.086Z,21.73
2022-11-02T05:32:36.777Z,21.90
2022-11-02T05:35:04.307Z,20.55
2022-11-02T05:37:30.997Z,21.65
2022-11-02T05:39:58.666Z,21.35
2022-11-02T05:42:26.130Z,21.88
2022-11-02T05:44:52.861Z,21.55
2022-11-02T05:47:19.622Z,24.52
2022-11-02T05:49:46.568Z,24.00
2022-11-02T05:52:13.230Z,22.02
2022-11-02T05:54:39.935Z,23.33
2022-11-02T05:57:07.031Z,22.05
2022-11-02T05:59:33.798Z,23.05
2022-11-02T06:02:00.624Z,24.52
2022-11-02T06:04:27.377Z,25.35
2022-11-02T06:06:54.034Z,25.48
2022-11-02T06:09:20.690Z,26.77
2022-11-02T06:11:47.706Z,25.63
2022-11-02T06:14:14.351Z,26.20
2022-11-02T06:16:41.026Z,25.58
2022-11-02T06:19:07.896Z,26.40
2022-11-02T06:21:34.587Z,24.85
2022-11-02T06:24:01.230Z,26.35
2022-11-02T06:26:27.940Z,27.40
2022-11-02T06:28:54.578Z,27.33
2022-11-02T06:31:21.310Z,29.73
2022-11-02T06:33:48.110Z,30.98
2022-11-02T06:36:14.878Z,30.58
2022-11-02T06:38:42.056Z,30.20
2022-11-02T06:41:10.795Z,30.35
2022-11-02T06:43:38.468Z,29.70
2022-11-02T06:46:06.282Z,29.83
2022-11-02T06:48:35.250Z,34.00
2022-11-02T06:51:03.932Z,31.80
2022-11-02T06:53:31.025Z,35.35
2022-11-02T06:55:59.420Z,33.30
2022-11-02T06:58:26.689Z,33.50
2022-11-02T07:01:01.705Z,34.97
2022-11-02T07:03:29.721Z,34.50
2022-11-02T07:05:56.897Z,33.92
2022-11-02T07:08:24.162Z,36.38
2022-11-02T07:10:50.985Z,37.63
2022-11-02T07:13:18.016Z,36.28
2022-11-02T07:15:44.761Z,37.78
2022-11-02T07:18:12.497Z,39.17
2022-11-02T07:20:39.589Z,37.17
2022-11-02T07:23:06.970Z,36.10
2022-11-02T07:25:33.985Z,36.40
2022-11-02T07:28:02.235Z,37.25
2022-11-02T07:30:30.271Z,36.78
2022-11-02T07:32:56.965Z,35.30
2022-11-02T07:35:23.675Z,36.80
2022-11-02T07:37:58.662Z,36.50
2022-11-02T07:40:25.667Z,34.35
2022-11-02T07:42:53.997Z,37.05
2022-11-02T07:45:22.206Z,35.25
2022-11-02T07:47:49.798Z,33.90
2022-11-02T07:50:19.035Z,36.20
2022-11-02T07:52:50.562Z,36.40
2022-11-02T07:55:19.984Z,34.85
2022-11-02T07:57:57.330Z,36.15
2022-11-02T08:00:26.261Z,36.42
2022-11-02T08:02:57.040Z,36.38
2022-11-02T08:05:24.859Z,35.28
2022-11-02T08:07:59.700Z,34.22
2022-11-02T08:10:27.669Z,33.77
2022-11-02T08:12:55.314Z,34.10
2022-11-02T08:15:22.076Z,32.97
2022-11-02T08:17:59.289Z,34.95
2022-11-02T08:20:25.883Z,31.60
2022-11-02T08:22:52.533Z,32.67
2022-11-02T08:25:19.305Z,32.80
2022-11-02T08:27:45.938Z,32.90
2022-11-02T08:30:13.050Z,34.50
2022-11-02T08:32:39.749Z,32.45
2022-11-02T08:35:06.993Z,32.95
2022-11-02T08:37:33.671Z,32.90
2022-11-02T08:40:00.680Z,31.85
2022-11-02T08:42:27.334Z,35.67
2022-11-02T08:44:54.102Z,35.25
2022-11-02T08:47:21.731Z,35.85
2022-11-02T08:49:48.402Z,32.17
2022-11-02T08:52:15.085Z,29.30
2022-11-02T08:54:41.867Z,27.40
2022-11-02T08:57:08.521Z,25.23
2022-11-02T08:59:35.300Z,24.15
2022-11-02T09:02:02.200Z,22.80
2022-11-02T09:04:28.937Z,23.02
2022-11-02T09:06:55.604Z,21.45
2022-11-02T09:09:22.351Z,20.83
2022-11-02T09:11:50.679Z,20.40
2022-11-02T09:14:17.591Z,20.48
2022-11-02T09:16:44.614Z,19.27
2022-11-02T09:19:11.251Z,19.88
2022-11-02T09:21:38.052Z,21.23
2022-11-02T09:24:05.241Z,19.92
2022-11-02T09:26:31.890Z,19.80
2022-11-02T09:28:58.549Z,19.60
2022-11-02T09:31:25.276Z,20.05
2022-11-02T09:33:51.985Z,20.75
2022-11-02T09:36:18.649Z,20.27
2022-11-02T09:38:45.368Z,19.95
2022-11-02T09:41:28.009Z,20.05
2022-11-02T09:44:18.125Z,21.42
2022-11-02T09:46:46.818Z,21.90
2022-11-02T09:49:25.723Z,22.67
2022-11-02T09:51:55.958Z,23.50
2022-11-02T09:54:42.006Z,23.33
2022-11-02T09:57:16.611Z,21.92
2022-11-02T09:59:43.504Z,20.90
2022-11-02T10:02:28.411Z,20.75
2022-11-02T10:05:27.921Z,19.98
2022-11-02T10:08:15.787Z,20.92
2022-11-02T10:10:49.042Z,20.33
2022-11-02T10:13:45.056Z,18.38
2022-11-02T10:16:33.615Z,18.40
2022-11-02T10:19:02.584Z,14.82
2022-11-02T10:21:38.048Z,15.82
2022-11-02T10:26:43.318Z,10.18
2022-11-02T10:29:18.532Z,10.43
2022-11-02T10:31:45.979Z,11.23
2022-11-02T10:34:28.498Z,12.43
2022-11-02T10:37:46.838Z,11.30
2022-11-02T10:40:42.198Z,11.73
2022-11-02T10:43:30.328Z,12.75
2022-11-02T10:46:27.694Z,13.48
2022-11-02T10:49:14.696Z,13.55
2022-11-02T10:51:41.617Z,13.40
2022-11-02T10:54:21.605Z,14.25
2022-11-02T10:56:56.759Z,13.10
2022-11-02T10:59:24.416Z,13.20
2022-11-02T11:01:57.283Z,12.18
2022-11-02T11:04:28.908Z,12.23
2022-11-02T11:06:56.988Z,12.52
2022-11-02T11:09:30.780Z,13.27
2022-11-02T11:12:03.158Z,14.00
2022-11-02T11:20:39.051Z,14.13
2022-11-02T11:23:24.018Z,15.23
2022-11-02T11:25:58.380Z,19.25
2022-11-02T11:28:32.679Z,20.33
2022-11-02T11:31:05.388Z,21.90
2022-11-02T11:33:33.849Z,23.13
2022-11-02T11:36:01.058Z,24.67
2022-11-02T11:38:28.178Z,25.42
2022-11-02T11:40:58.457Z,25.42
2022-11-02T11:43:35.114Z,24.77
2022-11-02T11:46:06.752Z,25.50
2022-11-02T11:48:39.595Z,26.88
2022-11-02T11:51:26.599Z,26.55
2022-11-02T11:54:14.087Z,26.95
2022-11-02T11:56:40.805Z,28.23
2022-11-02T11:59:21.198Z,27.55
2022-11-02T12:01:48.548Z,27.30
2022-11-02T12:04:31.059Z,24.88
2022-11-02T12:07:19.053Z,24.25
2022-11-02T12:10:04.467Z,22.73
2022-11-02T12:12:41.409Z,21.77
2022-11-02T12:15:11.078Z,20.48
2022-11-02T12:17:49.927Z,23.00
2022-11-02T12:20:39.886Z,21.00
2022-11-02T12:23:54.906Z,22.33
2022-11-02T12:26:30.813Z,22.77
2022-11-02T12:29:15.659Z,22.02
2022-11-02T12:32:00.636Z,23.20
2022-11-02T12:34:39.886Z,23.48
2022-11-02T12:37:41.224Z,23.17
2022-11-02T12:40:45.270Z,26.17
2022-11-02T12:43:32.436Z,24.67
2022-11-02T12:46:04.205Z,24.30
2022-11-02T12:48:46.398Z,22.77
2022-11-02T12:51:18.072Z,26.02
2022-11-02T12:53:53.615Z,26.30
2022-11-02T12:56:38.072Z,24.98
2022-11-02T12:59:05.141Z,23.50
2022-11-02T13:01:41.011Z,29.33
2022-11-02T13:04:35.462Z,30.27
2022-11-02T13:07:12.420Z,22.98
2022-11-02T13:10:02.498Z,25.30
2022-11-02T13:12:32.322Z,25.20
2022-11-02T13:15:00.932Z,26.08
2022-11-02T13:17:49.089Z,27.02
2022-11-02T13:20:21.732Z,26.40
2022-11-02T13:23:14.630Z,30.65
2022-11-02T13:25:48.473Z,28.15
2022-11-02T13:28:38.754Z,28.77
2022-11-02T13:31:12.889Z,28.58
2022-11-02T13:33:53.963Z,29.90
2022-11-02T13:36:20.853Z,27.70
2022-11-02T13:38:56.591Z,28.08
2022-11-02T13:42:02.355Z,28.88
2022-11-02T13:44:55.772Z,28.35
2022-11-02T13:47:51.053Z,26.35
2022-11-02T13:50:22.186Z,25.00
2022-11-02T13:52:59.890Z,24.67
2022-11-02T13:55:46.168Z,25.00
2022-11-02T13:58:26.458Z,23.85
2022-11-02T14:00:59.028Z,26.33
2022-11-02T14:03:48.067Z,26.88
2022-11-02T14:06:17.350Z,25.50
2022-11-02T14:09:01.779Z,23.60
2022-11-02T14:11:36.847Z,26.20
2022-11-02T14:14:04.153Z,24.88
2022-11-02T14:16:43.176Z,23.67
2022-11-02T14:19:45.336Z,22.08
2022-11-02T14:22:17.431Z,23.08
2022-11-02T14:24:48.225Z,20.90
2022-11-02T14:27:19.185Z,21.88
2022-11-02T14:29:45.879Z,22.00
2022-11-02T14:32:21.740Z,21.48
2022-11-02T14:35:04.371Z,20.15
2022-11-02T14:37:49.322Z,20.23
2022-11-02T14:40:29.482Z,21.67
2022-11-02T14:43:07.475Z,20.98
2022-11-02T14:45:38.602Z,21.00
2022-11-02T14:48:06.861Z,18.95
2022-11-02T14:50:34.301Z,18.02
2022-11-02T14:53:08.672Z,19.20
2022-11-02T14:55:38.727Z,18.45
2022-11-02T14:58:20.320Z,18.67
2022-11-02T15:00:49.992Z,16.95
2022-11-02T15:03:26.113Z,18.15
2022-11-02T15:06:14.906Z,17.20
2022-11-02T15:08:58.213Z,15.02
2022-11-02T15:11:46.948Z,16.75
2022-11-02T15:14:35.677Z,15.32
2022-11-02T15:17:12.459Z,17.52
2022-11-02T15:19:47.093Z,14.90
2022-11-02T15:22:54.779Z,15.67
2022-11-02T15:25:25.290Z,16.13
2022-11-02T15:27:55.535Z,15.65
2022-11-02T15:30:28.053Z,15.23
2022-11-02T15:33:06.590Z,15.38
2022-11-02T15:35:37.017Z,15.93
2022-11-02T15:38:25.796Z,15.88
2022-11-02T15:41:06.123Z,16.20
2022-11-02T15:44:24.792Z,15.52
2022-11-02T15:47:15.560Z,15.10
2022-11-02T15:50:19.524Z,15.43
2022-11-02T15:53:23.192Z,16.15
2022-11-02T15:56:28.274Z,16.58
2022-11-02T15:59:40.141Z,16.30
2022-11-02T16:02:24.113Z,17.05
2022-11-02T16:04:57.029Z,16.15
2022-11-02T16:07:33.220Z,17.63
2022-11-02T16:10:22.997Z,16.92
2022-11-02T16:13:11.672Z,18.33
2022-11-02T16:15:42.225Z,19.90
2022-11-02T16:18:42.336Z,18.05
2022-11-02T16:21:16.731Z,18.85
2022-11-02T16:23:53.214Z,18.65
2022-11-02T16:26:22.674Z,18.05
2022-11-02T16:28:55.046Z,17.92
2022-11-02T16:31:31.246Z,19.08
2022-11-02T16:34:05.281Z,18.05
2022-11-02T16:36:36.522Z,18.42
2022-11-02T16:39:30.210Z,19.13
2022-11-02T16:42:00.309Z,17.90
2022-11-02T16:44:32.075Z,19.52
2022-11-02T16:47:00.595Z,18.88
2022-11-02T16:49:28.628Z,18.60
2022-11-02T16:52:00.846Z,20.48
2022-11-02T16:54:43.350Z,19.55
2022-11-02T16:57:18.634Z,18.63
2022-11-02T16:59:57.164Z,19.85
2022-11-02T17:02:37.544Z,18.98
2022-11-02T17:05:26.758Z,18.65
2022-11-02T17:08:09.422Z,17.88
2022-11-02T17:10:38.537Z,17.92
2022-11-02T17:13:17.148Z,18.63
2022-11-02T17:15:51.714Z,19.13
2022-11-02T17:18:21.408Z,19.08
2022-11-02T17:21:08.552Z,19.95
2022-11-02T17:23:36.743Z,19.67
2022-11-02T17:26:22.315Z,20.35
2022-11-02T17:28:55.257Z,19.58
2022-11-02T17:31:35.811Z,20.17
2022-11-02T17:34:09.939Z,20.15
2022-11-02T17:36:44.705Z,19.65
2022-11-02T17:39:16.053Z,19.77
2022-11-02T17:42:02.302Z,20.02
2022-11-02T17:44:28.957Z,19.45
2022-11-02T17:46:56.146Z,20.38
2022-11-02T17:49:22.879Z,19.65
2022-11-02T17:51:49.603Z,20.95
2022-11-02T17:54:16.512Z,20.70
2022-11-02T17:56:43.401Z,20.95
2022-11-02T17:59:10.473Z,20.27
2022-11-02T18:01:37.428Z,20.60
2022-11-02T18:04:04.320Z,20.50
2022-11-02T18:06:31.128Z,21.25
2022-11-02T18:09:15.284Z,21.60
2022-11-02T18:11:42.139Z,20.38
2022-11-02T18:14:14.024Z,20.40
2022-11-02T18:16:41.144Z,21.80
2022-11-02T18:19:08.321Z,20.63
2022-11-02T18:21:35.091Z,22.48
2022-11-02T18:24:01.814Z,21.85
2022-11-02T18:26:28.512Z,21.25
2022-11-02T18:28:55.205Z,21.90
2022-11-02T18:31:21.931Z,22.13
2022-11-02T18:33:48.658Z,21.15
2022-11-02T18:36:15.317Z,21.58
2022-11-02T18:38:42.374Z,22.08
2022-11-02T18:41:29.638Z,21.55
2022-11-02T18:44:04.946Z,22.17
2022-11-02T18:46:34.897Z,22.17
2022-11-02T18:49:02.628Z,20.83
2022-11-02T18:51:29.484Z,22.17
2022-11-02T18:54:04.232Z,23.05
2022-11-02T18:56:31.321Z,24.15
2022-11-02T18:58:58.209Z,22.67
2022-11-02T19:01:26.224Z,22.98
2022-11-02T19:03:55.469Z,24.45
2022-11-02T19:06:41.926Z,23.08
2022-11-02T19:09:20.483Z,22.45
2022-11-02T19:11:52.406Z,23.45
2022-11-02T19:14:20.196Z,23.00
2022-11-02T19:16:47.468Z,24.73
2022-11-02T19:19:14.197Z,24.50
2022-11-02T19:21:41.163Z,24.70
2022-11-02T19:24:08.706Z,23.73
2022-11-02T19:26:36.176Z,24.65
2022-11-02T19:29:06.270Z,24.90
2022-11-02T19:31:34.779Z,24.80
2022-11-02T19:34:01.655Z,23.50
2022-11-02T19:36:28.416Z,22.77
2022-11-02T19:38:55.134Z,24.95
2022-11-02T19:41:22.347Z,25.42
2022-11-02T19:43:48.995Z,24.85
2022-11-02T19:46:18.577Z,26.02
2022-11-02T19:48:45.597Z,23.52
2022-11-02T19:51:23.990Z,24.55
2022-11-02T19:53:56.126Z,24.00
2022-11-02T19:56:23.123Z,24.30
2022-11-02T19:58:51.643Z,25.25
2022-11-02T20:01:22.473Z,28.83
2022-11-02T20:03:50.071Z,28.95
2022-11-02T20:06:28.730Z,32.17
2022-11-02T20:08:57.351Z,34.15
2022-11-02T20:11:27.314Z,33.55
2022-11-02T20:13:54.354Z,33.95
2022-11-02T20:16:21.246Z,38.00
2022-11-02T20:18:50.179Z,35.53
2022-11-02T20:21:19.217Z,37.05
2022-11-02T20:23:46.931Z,37.13
2022-11-02T20:26:19.857Z,35.92
2022-11-02T20:28:48.096Z,35.72
2022-11-02T20:31:23.550Z,37.58
2022-11-02T20:36:17.278Z,36.30
2022-11-02T20:38:44.602Z,36.28
2022-11-02T20:41:13.740Z,35.40
2022-11-02T20:43:42.413Z,34.90
2022-11-02T20:49:08.600Z,34.80
2022-11-02T20:51:47.565Z,35.88
2022-11-02T20:54:14.274Z,34.60
2022-11-02T20:56:41.110Z,35.90
2022-11-02T20:59:07.822Z,35.38
2022-11-02T21:01:35.443Z,34.80
2022-11-02T21:04:02.625Z,34.35
2022-11-02T21:06:29.616Z,34.35
2022-11-02T21:08:56.634Z,34.50
2022-11-02T21:11:41.646Z,32.50
2022-11-02T21:14:08.506Z,34.40
2022-11-02T21:16:35.212Z,35.25
2022-11-02T21:19:02.030Z,35.42
2022-11-02T21:21:29.019Z,34.22
2022-11-02T21:23:55.934Z,33.90
2022-11-02T21:26:22.626Z,35.40
2022-11-02T21:28:49.525Z,34.70
2022-11-02T21:31:21.462Z,36.05
2022-11-02T21:33:49.644Z,36.72
2022-11-02T21:36:17.583Z,36.35
2022-11-02T21:38:50.728Z,35.83
2022-11-02T21:41:20.543Z,37.25
2022-11-02T21:43:47.651Z,37.08
2022-11-02T21:46:14.425Z,37.17
2022-11-02T21:48:41.208Z,36.47
2022-11-02T21:51:17.528Z,36.25
2022-11-02T21:53:45.325Z,36.40
2022-11-02T21:56:17.537Z,36.05
2022-11-02T21:58:46.023Z,38.53
2022-11-02T22:01:34.633Z,38.65
2022-11-02T22:04:01.649Z,38.90
2022-11-02T22:06:31.550Z,38.97
2022-11-02T22:08:59.977Z,37.20
2022-11-02T22:11:27.338Z,38.33
2022-11-02T22:13:55.686Z,36.17
2022-11-02T22:16:28.454Z,38.10
2022-11-02T22:18:57.659Z,38.45
2022-11-02T22:21:26.601Z,38.60
2022-11-02T22:23:54.090Z,38.65
2022-11-02T22:26:23.176Z,37.42
2022-11-02T22:28:50.429Z,37.00
2022-11-02T22:31:25.704Z,35.65
2022-11-02T22:33:55.455Z,38.75
2022-11-02T22:36:25.263Z,37.55
2022-11-02T22:38:56.280Z,36.33
2022-11-02T22:41:28.421Z,35.95
2022-11-02T22:43:57.431Z,36.25
2022-11-02T22:46:26.265Z,38.25
2022-11-02T22:48:54.734Z,38.10
2022-11-02T22:51:23.285Z,38.17
2022-11-02T22:53:50.494Z,38.08
2022-11-02T22:56:19.784Z,36.30
2022-11-02T22:58:47.854Z,36.67
2022-11-02T23:01:17.466Z,36.90
2022-11-02T23:03:44.757Z,37.53
2022-11-02T23:06:12.538Z,39.33
2022-11-02T23:08:41.973Z,39.70
2022-11-02T23:11:22.296Z,39.97
2022-11-02T23:14:04.634Z,41.97
2022-11-02T23:16:33.917Z,41.38
2022-11-02T23:19:31.490Z,39.90
2022-11-02T23:22:18.761Z,40.38
2022-11-02T23:25:06.127Z,42.47
2022-11-02T23:27:56.196Z,39.50
2022-11-02T23:30:42.263Z,39.20
2022-11-02T23:33:09.544Z,38.20
2022-11-02T23:35:55.102Z,41.97
2022-11-02T23:38:21.922Z,40.83
2022-11-02T23:40:48.541Z,39.22
2022-11-02T23:43:15.168Z,40.70
2022-11-02T23:45:41.894Z,41.63
2022-11-02T23:48:09.200Z,39.28
2022-11-02T23:50:55.129Z,40.58
2022-11-02T23:53:42.214Z,41.75
2022-11-02T23:56:36.434Z,39.55
2022-11-02T23:59:06.545Z,38.30
